Time;durP1;ratioP1;P1;durP2;ratioP2;P2;SDS_P1;SDS_P2;PMS_P1;PMS_P2;Temp;Humidity;BMP_temperature;BMP_pressure;BME280_temperature;BME280_humidity;BME280_pressure;Samples;Min_cycle;Max_cycle;Signal;HPM_P1;HPM_P2
2022/03/02 00:00:26;;;;;;;14.85;7.95;;;;;;;2.67;65.38;101415.53;1858495;75;21050;-58
2022/03/02 00:02:54;;;;;;;13.55;7.35;;;;;;;2.67;65.39;101412.92;1850976;75;21033;-58
2022/03/02 00:05:20;;;;;;;13.62;8.68;;;;;;;2.65;65.43;101406.47;1856936;75;21121;-58
2022/03/02 00:07:47;;;;;;;15.88;8.88;;;;;;;2.59;65.34;101401.48;1832978;77;21048;-58
2022/03/02 00:10:15;;;;;;;15.28;7.35;;;;;;;2.53;65.51;101394.70;1784657;78;21059;-58
2022/03/02 00:12:42;;;;;;;14.00;8.18;;;;;;;2.54;65.68;101398.14;1789405;79;21572;-59
2022/03/02 00:15:09;;;;;;;14.93;8.93;;;;;;;2.49;65.72;101395.71;1804787;78;20986;-58
2022/03/02 00:17:36;;;;;;;15.50;7.53;;;;;;;2.45;65.85;101385.45;1802527;78;21138;-58
2022/03/02 00:20:04;;;;;;;13.35;7.72;;;;;;;2.41;65.93;101384.69;1788664;79;21069;-59
2022/03/02 00:22:31;;;;;;;12.85;7.58;;;;;;;2.41;66.01;101380.34;1781005;79;21022;-58
2022/03/02 00:24:57;;;;;;;15.08;8.10;;;;;;;2.48;65.91;101380.16;1790317;79;21577;-58
2022/03/02 00:27:24;;;;;;;15.25;7.95;;;;;;;2.52;65.89;101373.97;1797440;77;21070;-58
2022/03/02 00:29:51;;;;;;;15.40;8.55;;;;;;;2.53;65.86;101373.08;1810612;77;21944;-58
2022/03/02 00:32:18;;;;;;;13.65;7.62;;;;;;;2.51;65.91;101365.79;1786149;78;21054;-58
2022/03/02 00:34:44;;;;;;;17.87;8.00;;;;;;;2.46;66.02;101362.02;1818476;78;21525;-57
2022/03/02 00:37:25;;;;;;;14.15;7.70;;;;;;;2.45;66.10;101359.02;1803800;78;21042;-57
2022/03/02 00:39:52;;;;;;;13.20;7.65;;;;;;;2.45;66.16;101351.22;1807990;78;21486;-58
2022/03/02 00:42:18;;;;;;;14.00;8.85;;;;;;;2.52;66.03;101354.05;1811683;77;21126;-58
2022/03/02 00:44:45;;;;;;;15.95;8.40;;;;;;;2.57;65.93;101344.80;1783170;78;21109;-58
2022/03/02 00:47:12;;;;;;;14.95;8.00;;;;;;;2.55;65.86;101342.70;1810566;77;21034;-59
2022/03/02 00:49:39;;;;;;;13.40;8.08;;;;;;;2.55;65.95;101342.70;1788290;80;21054;-58
2022/03/02 00:52:09;;;;;;;16.05;8.45;;;;;;;2.53;66.01;101342.74;1770386;79;21011;-59
2022/03/02 00:54:36;;;;;;;18.02;9.23;;;;;;;2.50;66.10;101337.64;1823180;78;21140;-59
2022/03/02 00:57:03;;;;;;;15.53;8.75;;;;;;;2.48;66.29;101334.70;1818642;77;21680;-59
2022/03/02 00:59:29;;;;;;;17.15;8.78;;;;;;;2.45;66.36;101334.79;1784312;78;21137;-59
2022/03/02 01:01:56;;;;;;;14.68;8.13;;;;;;;2.43;66.44;101340.49;1775363;80;21105;-57
2022/03/02 01:04:22;;;;;;;15.60;8.65;;;;;;;2.45;66.48;101328.30;1778180;79;21057;-58
2022/03/02 01:06:49;;;;;;;14.87;8.50;;;;;;;2.51;66.38;101329.42;1816449;78;21148;-58
2022/03/02 01:09:16;;;;;;;16.20;8.83;;;;;;;2.58;66.41;101327.02;1818070;78;21085;-59
2022/03/02 01:11:43;;;;;;;16.45;8.50;;;;;;;2.59;66.37;101320.94;1804115;78;21785;-59
2022/03/02 01:14:10;;;;;;;15.63;8.48;;;;;;;2.58;66.40;101328.31;1814433;79;21066;-58
2022/03/02 01:16:38;;;;;;;15.95;7.95;;;;;;;2.58;66.52;101329.61;1799471;78;21057;-59
2022/03/02 01:19:04;;;;;;;17.90;9.10;;;;;;;2.57;66.59;101315.78;1796233;78;21059;-58
2022/03/02 01:21:31;;;;;;;20.92;9.58;;;;;;;2.53;66.71;101310.27;1803524;78;21085;-58
2022/03/02 01:23:59;;;;;;;19.80;9.68;;;;;;;2.52;66.92;101307.71;1794362;77;21034;-58
2022/03/02 01:26:25;;;;;;;16.80;9.63;;;;;;;2.53;67.03;101306.37;1799731;77;21534;-58
2022/03/02 01:28:55;;;;;;;16.30;9.68;;;;;;;2.57;67.16;101305.81;1805621;78;21088;-58
2022/03/02 01:31:24;;;;;;;17.40;9.75;;;;;;;2.52;67.37;101300.79;1785783;78;21457;-59
2022/03/02 01:33:51;;;;;;;14.28;8.63;;;;;;;2.49;67.61;101300.02;1787445;78;21467;-59
2022/03/02 01:36:18;;;;;;;17.80;10.85;;;;;;;2.44;67.80;101292.81;1807789;78;21051;-58
2022/03/02 01:39:01;;;;;;;17.57;9.38;;;;;;;2.40;68.03;101289.05;1797676;78;21508;-59
2022/03/02 01:41:34;;;;;;;18.98;10.68;;;;;;;2.39;68.19;101284.73;1786449;79;21481;-59
2022/03/02 01:44:00;;;;;;;19.25;9.88;;;;;;;2.46;68.25;101294.94;1798129;79;21919;-58
2022/03/02 01:46:26;;;;;;;16.52;10.68;;;;;;;2.49;68.31;101291.79;1808200;78;21017;-58
2022/03/02 01:48:53;;;;;;;17.73;10.00;;;;;;;2.47;68.53;101287.53;1796460;79;20991;-58
2022/03/02 01:51:20;;;;;;;20.90;10.72;;;;;;;2.42;68.74;101285.06;1792338;78;21050;-58
2022/03/02 01:53:46;;;;;;;17.70;10.93;;;;;;;2.37;69.04;101289.12;1786327;79;21474;-58
2022/03/02 01:56:12;;;;;;;18.15;9.55;;;;;;;2.34;69.21;101285.33;1798531;78;21042;-59
2022/03/02 01:58:39;;;;;;;21.80;10.08;;;;;;;2.35;69.34;101287.47;1783986;78;21076;-58
2022/03/02 02:01:06;;;;;;;19.92;11.25;;;;;;;2.43;69.36;101289.84;1769973;79;21421;-59
2022/03/02 02:03:33;;;;;;;18.70;10.28;;;;;;;2.48;69.35;101290.53;1782813;78;21011;-59
2022/03/02 02:06:01;;;;;;;20.30;11.35;;;;;;;2.47;69.46;101283.63;1798728;78;21105;-59
2022/03/02 02:08:29;;;;;;;18.07;11.35;;;;;;;2.44;69.50;101282.42;1811735;78;21090;-59
2022/03/02 02:10:56;;;;;;;21.77;11.75;;;;;;;2.39;69.54;101276.94;1799760;78;21683;-59
2022/03/02 02:13:24;;;;;;;18.65;10.82;;;;;;;2.35;69.63;101279.67;1789199;78;21152;-58
2022/03/02 02:15:51;;;;;;;22.13;10.85;;;;;;;2.34;69.72;101281.43;1795886;79;21046;-59
2022/03/02 02:18:17;;;;;;;16.95;11.03;;;;;;;2.41;69.51;101275.13;1782400;79;21638;-59
2022/03/02 02:20:43;;;;;;;22.40;12.07;;;;;;;2.49;69.47;101282.70;1787815;79;21120;-59
2022/03/02 02:23:10;;;;;;;18.30;10.35;;;;;;;2.52;69.45;101272.22;1808117;78;21686;-59
2022/03/02 02:25:36;;;;;;;18.92;11.48;;;;;;;2.52;69.48;101279.14;1822055;78;21057;-58
2022/03/02 02:28:03;;;;;;;23.35;12.10;;;;;;;2.50;69.52;101268.79;1807236;77;21085;-59
2022/03/02 02:30:30;;;;;;;20.97;10.85;;;;;;;2.48;69.39;101264.56;1757658;80;21050;-59
2022/03/02 02:32:57;;;;;;;20.77;11.97;;;;;;;2.43;69.44;101261.27;1777522;78;21041;-59
2022/03/02 02:35:25;;;;;;;21.05;12.28;;;;;;;2.45;69.44;101268.09;1761297;80;21348;-59
2022/03/02 02:37:51;;;;;;;23.75;11.60;;;;;;;2.55;69.38;101255.66;1793212;79;21481;-58
2022/03/02 02:40:19;;;;;;;21.27;11.78;;;;;;;2.60;69.28;101261.55;1789304;79;21121;-59
2022/03/02 02:42:46;;;;;;;19.73;11.95;;;;;;;2.63;69.20;101255.42;1778069;79;21579;-58
2022/03/02 02:45:17;;;;;;;30.15;13.53;;;;;;;2.63;69.10;101250.22;1783004;79;21130;-59
2022/03/02 02:47:45;;;;;;;25.35;13.40;;;;;;;2.57;69.22;101248.23;1791548;78;21047;-59
2022/03/02 02:50:27;;;;;;;20.27;11.08;;;;;;;2.55;69.36;101251.77;1804318;79;21088;-59
2022/03/02 02:52:54;;;;;;;28.12;12.28;;;;;;;2.49;69.42;101248.05;1804925;77;21046;-59
2022/03/02 02:55:22;;;;;;;23.65;12.43;;;;;;;2.50;69.48;101245.87;1788101;80;21026;-59
2022/03/02 02:57:49;;;;;;;23.22;12.40;;;;;;;2.57;69.39;101231.34;1813120;77;21164;-59
2022/03/02 03:00:18;;;;;;;21.62;12.28;;;;;;;2.66;69.29;101228.04;1777548;79;21557;-59
2022/03/02 03:02:49;;;;;;;31.07;12.98;;;;;;;2.70;69.17;101227.86;1800262;78;21520;-58
2022/03/02 03:05:18;;;;;;;23.83;13.15;;;;;;;2.71;69.20;101228.73;1795821;78;21070;-58
2022/03/02 03:07:45;;;;;;;24.57;13.13;;;;;;;2.69;69.01;101218.39;1807021;77;22446;-59
2022/03/02 03:10:12;;;;;;;27.87;13.05;;;;;;;2.66;69.08;101222.84;1786721;79;21101;-58
2022/03/02 03:12:38;;;;;;;23.57;13.55;;;;;;;2.60;69.18;101218.68;1805699;77;22440;-59
2022/03/02 03:15:06;;;;;;;28.80;14.83;;;;;;;2.55;69.27;101212.33;1789203;78;21162;-59
2022/03/02 03:17:34;;;;;;;25.37;14.33;;;;;;;2.56;69.32;101215.34;1787033;78;21093;-59
2022/03/02 03:20:00;;;;;;;27.05;14.50;;;;;;;2.67;69.13;101221.92;1783197;78;21534;-58
2022/03/02 03:22:27;;;;;;;28.10;13.78;;;;;;;2.75;68.95;101221.22;1786621;78;21306;-59
2022/03/02 03:24:53;;;;;;;26.35;13.75;;;;;;;2.75;68.86;101214.26;1798893;79;21410;-59
2022/03/02 03:27:20;;;;;;;27.22;14.35;;;;;;;2.73;68.75;101216.06;1798495;78;21096;-59
2022/03/02 03:29:46;;;;;;;26.20;13.62;;;;;;;2.68;68.87;101217.97;1791642;78;21165;-58
2022/03/02 03:32:12;;;;;;;27.50;14.87;;;;;;;2.66;68.87;101208.09;1797860;78;21093;-59
2022/03/02 03:34:38;;;;;;;33.05;15.70;;;;;;;2.62;68.83;101210.84;1777634;79;21115;-59
2022/03/02 03:37:05;;;;;;;30.17;15.43;;;;;;;2.57;68.91;101203.19;1789545;78;21481;-59
2022/03/02 03:39:31;;;;;;;22.87;12.45;;;;;;;2.57;68.91;101207.09;1794090;79;21117;-59
2022/03/02 03:41:57;;;;;;;26.82;14.28;;;;;;;2.66;68.79;101202.05;1794224;78;21092;-58
2022/03/02 03:44:24;;;;;;;23.92;13.20;;;;;;;2.70;68.66;101189.34;1790794;79;21693;-59
2022/03/02 03:46:51;;;;;;;25.90;13.90;;;;;;;2.66;68.65;101191.20;1795609;78;21128;-58
2022/03/02 03:49:18;;;;;;;27.17;14.45;;;;;;;2.63;68.90;101186.56;1791133;79;21011;-59
2022/03/02 03:51:44;;;;;;;28.10;14.13;;;;;;;2.59;68.92;101179.33;1788493;78;21027;-59
2022/03/02 03:54:11;;;;;;;27.55;14.90;;;;;;;2.59;69.00;101176.73;1789853;78;21124;-59
2022/03/02 03:56:38;;;;;;;30.32;14.63;;;;;;;2.58;68.92;101180.21;1787456;78;21018;-59
2022/03/02 03:59:04;;;;;;;25.88;13.05;;;;;;;2.56;68.95;101181.56;1792517;78;21197;-59
2022/03/02 04:01:31;;;;;;;25.68;13.55;;;;;;;2.64;68.85;101177.42;1791995;79;21646;-59
2022/03/02 04:03:57;;;;;;;33.40;15.40;;;;;;;2.70;68.76;101175.88;1789164;79;21037;-59
2022/03/02 04:06:23;;;;;;;25.08;13.13;;;;;;;2.69;68.78;101165.11;1786202;78;21006;-59
2022/03/02 04:08:50;;;;;;;23.18;12.43;;;;;;;2.69;68.77;101161.64;1791550;79;21064;-59
2022/03/02 04:11:16;;;;;;;25.60;14.73;;;;;;;2.69;68.78;101158.61;1793469;79;21119;-59
2022/03/02 04:13:44;;;;;;;30.32;14.78;;;;;;;2.64;68.66;101154.03;1795182;78;21072;-59
2022/03/02 04:16:11;;;;;;;29.35;14.40;;;;;;;2.59;68.82;101147.69;1801864;78;21126;-59
2022/03/02 04:18:37;;;;;;;25.70;13.00;;;;;;;2.64;68.78;101147.53;1779215;78;21109;-58
2022/03/02 04:21:04;;;;;;;28.38;13.83;;;;;;;2.72;68.65;101140.75;1772156;80;21690;-59
2022/03/02 04:23:30;;;;;;;26.65;13.03;;;;;;;2.75;68.58;101145.38;1780174;78;23296;-59
2022/03/02 04:25:57;;;;;;;23.83;14.15;;;;;;;2.75;68.61;101148.44;1777590;79;21083;-59
2022/03/02 04:28:23;;;;;;;29.52;13.10;;;;;;;2.73;68.75;101147.66;1779757;78;21677;-59
2022/03/02 04:30:50;;;;;;;26.00;13.53;;;;;;;2.70;68.76;101138.20;1774449;79;21645;-59
2022/03/02 04:33:16;;;;;;;23.25;14.15;;;;;;;2.67;68.70;101142.20;1807260;78;21062;-59
2022/03/02 04:35:43;;;;;;;28.32;13.78;;;;;;;2.63;68.72;101139.78;1808556;78;21191;-58
2022/03/02 04:38:12;;;;;;;19.55;12.25;;;;;;;2.63;68.78;101138.03;1807380;78;20990;-59
2022/03/02 04:40:38;;;;;;;21.87;13.88;;;;;;;2.69;68.57;101136.52;1814666;78;21104;-59
2022/03/02 04:43:05;;;;;;;28.00;12.63;;;;;;;2.73;68.52;101136.80;1811344;77;21109;-55
2022/03/02 04:45:31;;;;;;;22.42;13.15;;;;;;;2.73;68.49;101136.80;1774144;80;21066;-58
2022/03/02 04:47:58;;;;;;;23.20;13.00;;;;;;;2.71;68.52;101133.41;1770654;78;21119;-58
2022/03/02 04:50:26;;;;;;;24.67;13.95;;;;;;;2.68;68.58;101133.98;1767117;80;21761;-59
2022/03/02 04:52:53;;;;;;;24.72;14.40;;;;;;;2.62;68.65;101134.19;1749303;81;21014;-59
2022/03/02 04:55:20;;;;;;;24.85;12.70;;;;;;;2.57;68.79;101130.44;1813372;77;21061;-60
2022/03/02 04:57:52;;;;;;;23.12;12.10;;;;;;;2.57;68.79;101131.73;1816247;78;21031;-59
2022/03/02 05:00:23;;;;;;;21.52;12.47;;;;;;;2.65;68.67;101130.19;1775537;80;21115;-58
2022/03/02 05:02:50;;;;;;;22.20;13.25;;;;;;;2.68;68.67;101132.22;1760739;81;21065;-58
2022/03/02 05:05:19;;;;;;;23.57;12.15;;;;;;;2.68;68.77;101131.38;1762210;79;21109;-59
2022/03/02 05:07:46;;;;;;;25.35;14.58;;;;;;;2.68;68.80;101135.28;1756109;81;21093;-60
2022/03/02 05:10:14;;;;;;;22.45;12.18;;;;;;;2.64;68.78;101133.24;1763285;79;21065;-59
2022/03/02 05:12:40;;;;;;;24.00;12.25;;;;;;;2.61;68.86;101139.84;1767079;79;22318;-59
2022/03/02 05:15:09;;;;;;;24.75;12.25;;;;;;;2.59;68.87;101142.95;1754857;79;21082;-59
2022/03/02 05:17:35;;;;;;;25.27;14.25;;;;;;;2.64;68.87;101142.34;1755912;81;21010;-58
2022/03/02 05:20:05;;;;;;;22.07;13.18;;;;;;;2.67;68.83;101143.50;1755377;79;21548;-59
2022/03/02 05:22:31;;;;;;;26.85;12.93;;;;;;;2.66;68.95;101140.52;1754051;81;21068;-58
2022/03/02 05:24:58;;;;;;;21.65;12.65;;;;;;;2.63;69.06;101138.03;1755197;79;21169;-59
2022/03/02 05:27:24;;;;;;;26.95;12.80;;;;;;;2.60;69.04;101137.67;1756784;80;21086;-59
2022/03/02 05:29:51;;;;;;;22.93;12.80;;;;;;;2.54;69.19;101135.73;1753334;79;21078;-58
2022/03/02 05:32:17;;;;;;;27.82;13.93;;;;;;;2.52;69.44;101124.55;1755522;81;20995;-58
2022/03/02 05:34:44;;;;;;;21.80;11.95;;;;;;;2.56;69.49;101130.90;1769512;79;21529;-59
2022/03/02 05:37:10;;;;;;;22.35;12.13;;;;;;;2.60;69.37;101129.03;1778046;80;21115;-59
2022/03/02 05:39:37;;;;;;;21.12;12.55;;;;;;;2.58;69.54;101126.95;1773507;79;21081;-59
2022/03/02 05:42:05;;;;;;;24.43;12.05;;;;;;;2.58;69.66;101121.75;1771838;79;21057;-59
2022/03/02 05:44:32;;;;;;;22.35;12.95;;;;;;;2.57;69.70;101127.84;1770077;79;21126;-60
2022/03/02 05:46:58;;;;;;;27.10;13.03;;;;;;;2.56;69.75;101123.56;1770632;79;21544;-59
2022/03/02 05:49:24;;;;;;;20.82;12.37;;;;;;;2.58;69.74;101129.55;1771150;79;21115;-59
2022/03/02 05:51:51;;;;;;;19.60;10.90;;;;;;;2.67;69.59;101116.68;1774606;79;21062;-58
2022/03/02 05:54:17;;;;;;;22.90;12.60;;;;;;;2.70;69.51;101125.20;1772319;79;21011;-59
2022/03/02 05:56:44;;;;;;;22.15;11.50;;;;;;;2.69;69.59;101123.96;1780694;78;21053;-59
2022/03/02 05:59:13;;;;;;;21.10;12.45;;;;;;;2.65;69.59;101120.63;1778511;79;21061;-58
2022/03/02 06:01:39;;;;;;;23.90;13.43;;;;;;;2.57;69.82;101113.55;1785543;78;21438;-59
2022/03/02 06:04:06;;;;;;;23.73;11.10;;;;;;;2.53;69.97;101115.41;1768482;79;21072;-59
2022/03/02 06:06:34;;;;;;;19.57;10.13;;;;;;;2.52;70.07;101118.92;1769973;80;21118;-59
2022/03/02 06:09:03;;;;;;;20.82;11.15;;;;;;;2.59;70.00;101120.41;1764114;80;21050;-60
2022/03/02 06:11:30;;;;;;;21.20;11.15;;;;;;;2.66;70.05;101121.50;1774030;80;21045;-59
2022/03/02 06:13:57;;;;;;;19.57;11.90;;;;;;;2.66;70.09;101126.23;1774692;80;21058;-59
2022/03/02 06:16:25;;;;;;;19.15;11.65;;;;;;;2.64;70.14;101130.64;1779372;78;21058;-60
2022/03/02 06:18:52;;;;;;;20.30;11.18;;;;;;;2.64;70.20;101128.47;1777818;79;21588;-58
2022/03/02 06:21:26;;;;;;;17.30;10.55;;;;;;;2.56;70.16;101127.00;1777965;80;21062;-59
2022/03/02 06:23:53;;;;;;;21.75;12.45;;;;;;;2.54;70.26;101117.55;1768407;78;21076;-59
2022/03/02 06:26:25;;;;;;;16.95;10.35;;;;;;;2.60;70.15;101120.78;1773212;78;21143;-59
2022/03/02 06:28:52;;;;;;;25.68;12.85;;;;;;;2.61;70.24;101113.86;1773502;79;21579;-59
2022/03/02 06:31:18;;;;;;;22.48;10.72;;;;;;;2.59;70.28;101116.97;1777478;78;21069;-59
2022/03/02 06:33:46;;;;;;;15.90;9.45;;;;;;;2.58;70.30;101113.95;1774311;78;21342;-59
2022/03/02 06:36:13;;;;;;;18.10;10.60;;;;;;;2.58;70.32;101117.86;1811719;78;21037;-58
2022/03/02 06:38:40;;;;;;;16.95;9.48;;;;;;;2.58;70.19;101110.06;1791016;78;22139;-57
2022/03/02 06:41:47;;;;;;;17.95;9.70;;;;;;;2.64;70.03;101104.66;1792269;78;21536;-61
2022/03/02 06:44:28;;;;;;;17.87;10.53;;;;;;;2.71;69.76;101107.42;1794705;78;21108;-60
2022/03/02 06:47:05;;;;;;;18.35;9.63;;;;;;;2.75;69.76;101106.40;1789390;78;21105;-57
2022/03/02 06:49:47;;;;;;;20.62;10.78;;;;;;;2.77;69.69;101105.05;1792476;79;21080;-60
2022/03/02 06:52:18;;;;;;;21.85;11.00;;;;;;;2.76;69.57;101104.20;1792783;78;21141;-59
2022/03/02 06:54:47;;;;;;;15.90;10.00;;;;;;;2.77;69.50;101098.55;1797613;79;21084;-59
2022/03/02 06:57:16;;;;;;;19.82;11.33;;;;;;;2.82;69.38;101099.69;1793243;78;20991;-59
2022/03/02 06:59:44;;;;;;;21.68;11.43;;;;;;;2.86;69.26;101095.63;1814168;78;21058;-59
2022/03/02 07:02:15;;;;;;;18.82;10.53;;;;;;;2.87;69.27;101084.31;1817822;77;21096;-60
2022/03/02 07:04:43;;;;;;;21.17;11.18;;;;;;;2.87;69.38;101093.41;1781803;80;21904;-60
2022/03/02 07:07:11;;;;;;;20.48;11.78;;;;;;;2.85;69.51;101088.73;1801602;78;21026;-60
2022/03/02 07:09:38;;;;;;;19.42;11.15;;;;;;;2.83;69.71;101092.30;1780544;80;21028;-60
2022/03/02 07:12:07;;;;;;;18.20;11.03;;;;;;;2.87;69.66;101090.81;1796987;78;21140;-60
2022/03/02 07:14:40;;;;;;;17.75;9.93;;;;;;;2.97;69.60;101093.93;1813653;77;21086;-60
2022/03/02 07:17:04;;;;;;;17.60;9.30;;;;;;;3.09;69.66;101093.92;1817247;78;21373;-60
2022/03/02 07:19:31;;;;;;;22.22;12.68;;;;;;;3.19;69.55;101084.03;1787070;78;21038;-60
2022/03/02 07:22:05;;;;;;;21.20;10.60;;;;;;;3.23;69.51;101083.86;1794598;78;21046;-60
2022/03/02 07:24:41;;;;;;;24.20;11.63;;;;;;;3.27;69.34;101082.82;1775940;80;21078;-60
2022/03/02 07:27:07;;;;;;;;;;;;;;;3.29;69.18;101085.36;1812658;78;21109;-60
2022/03/02 07:29:35;;;;;;;18.52;10.45;;;;;;;3.27;69.22;101082.82;1775985;79;21107;-60
2022/03/02 07:32:03;;;;;;;20.57;10.25;;;;;;;3.20;69.20;101085.73;1794722;78;21015;-60
2022/03/02 07:34:31;;;;;;;14.87;9.83;;;;;;;3.18;69.29;101081.02;1812910;77;21110;-58
2022/03/02 07:36:59;;;;;;;16.50;8.75;;;;;;;3.19;69.33;101086.16;1814447;78;21050;-58
2022/03/02 07:39:28;;;;;;;23.55;10.90;;;;;;;3.25;69.19;101080.74;1812418;77;21045;-59
2022/03/02 07:41:57;;;;;;;17.57;10.53;;;;;;;3.22;69.22;101074.81;1804622;78;21107;-59
2022/03/02 07:44:24;;;;;;;20.95;12.00;;;;;;;3.20;69.41;101072.73;1788442;79;20987;-59
2022/03/02 07:46:51;;;;;;;19.20;11.00;;;;;;;3.20;69.50;101069.67;1788546;78;21060;-58
2022/03/02 07:49:17;;;;;;;18.92;10.95;;;;;;;3.20;69.44;101068.83;1790699;78;21470;-59
2022/03/02 07:51:44;;;;;;;16.12;9.85;;;;;;;3.19;69.47;101074.46;1789714;78;21596;-59
2022/03/02 07:54:10;;;;;;;17.35;9.75;;;;;;;3.21;69.46;101070.50;1791466;78;21152;-58
2022/03/02 07:56:37;;;;;;;15.40;9.60;;;;;;;3.34;69.40;101072.56;1787179;79;21046;-58
2022/03/02 07:59:05;;;;;;;16.75;9.83;;;;;;;3.44;69.18;101062.66;1791820;78;21042;-61
2022/03/02 08:01:36;;;;;;;18.85;10.30;;;;;;;3.48;69.07;101060.34;1787481;79;21124;-61
2022/03/02 08:04:06;;;;;;;15.30;9.38;;;;;;;3.51;68.90;101055.02;1789897;78;21628;-61
2022/03/02 08:06:38;;;;;;;14.98;9.63;;;;;;;3.50;68.75;101055.91;1778473;79;21748;-62
2022/03/02 08:09:07;;;;;;;19.07;9.65;;;;;;;3.46;68.75;101054.36;1804864;78;21035;-62
2022/03/02 08:11:37;;;;;;;17.42;8.85;;;;;;;3.44;68.79;101050.11;1809818;78;21515;-61
2022/03/02 08:14:04;;;;;;;16.62;9.80;;;;;;;3.45;68.71;101050.52;1802943;77;21082;-61
2022/03/02 08:16:31;;;;;;;15.32;8.63;;;;;;;3.49;68.63;101042.97;1805727;77;21009;-61
2022/03/02 08:19:01;;;;;;;16.42;8.90;;;;;;;3.56;68.67;101040.97;1804097;77;21114;-61
2022/03/02 08:21:30;;;;;;;16.30;8.85;;;;;;;3.61;68.55;101043.77;1808309;78;21387;-59
2022/03/02 08:23:58;;;;;;;16.55;9.03;;;;;;;3.62;68.47;101040.27;1806656;78;20983;-58
2022/03/02 08:26:25;;;;;;;14.15;8.40;;;;;;;3.57;68.73;101038.77;1800296;77;21118;-59
2022/03/02 08:28:55;;;;;;;17.20;9.63;;;;;;;3.56;68.90;101039.66;1801827;78;21116;-60
2022/03/02 08:31:24;;;;;;;14.83;8.70;;;;;;;3.57;68.84;101038.30;1799635;78;21213;-59
2022/03/02 08:33:51;;;;;;;12.65;7.53;;;;;;;3.61;68.73;101040.32;1804055;77;21071;-57
2022/03/02 08:36:21;;;;;;;15.23;7.70;;;;;;;3.74;68.16;101031.11;1801100;77;21081;-58
2022/03/02 08:38:46;;;;;;;12.55;6.92;;;;;;;3.77;67.77;101030.98;1802582;77;21053;-59
2022/03/02 08:41:14;;;;;;;15.40;7.53;;;;;;;3.78;68.02;101028.75;1803950;77;21096;-58
2022/03/02 08:43:40;;;;;;;11.95;7.65;;;;;;;3.78;67.93;101019.64;1806889;78;21057;-59
2022/03/02 08:46:07;;;;;;;12.75;7.08;;;;;;;3.76;68.03;101020.17;1807401;78;21105;-59
2022/03/02 08:48:34;;;;;;;14.00;6.87;;;;;;;3.74;68.24;101014.19;1806345;78;21358;-58
2022/03/02 08:51:01;;;;;;;13.43;6.75;;;;;;;3.79;68.24;101008.80;1801884;78;21054;-58
2022/03/02 08:53:28;;;;;;;14.18;7.65;;;;;;;3.87;68.13;101012.77;1804818;78;21112;-58
2022/03/02 08:55:54;;;;;;;10.80;5.60;;;;;;;3.99;67.69;101010.10;1807548;78;21096;-59
2022/03/02 08:58:21;;;;;;;13.95;6.70;;;;;;;4.05;67.40;101007.67;1800913;78;21062;-59
2022/03/02 09:00:50;;;;;;;12.43;6.62;;;;;;;4.08;67.47;101005.81;1798449;78;21128;-59
2022/03/02 09:03:16;;;;;;;10.88;5.62;;;;;;;4.11;67.42;101006.13;1799239;77;22439;-60
2022/03/02 09:05:45;;;;;;;11.63;6.35;;;;;;;4.11;67.41;101006.59;1799631;78;21473;-60
2022/03/02 09:08:12;;;;;;;11.90;6.15;;;;;;;4.13;67.26;101009.50;1826834;78;21919;-60
2022/03/02 09:10:39;;;;;;;11.85;5.92;;;;;;;4.12;67.27;101002.62;1807123;78;21707;-61
2022/03/02 09:13:06;;;;;;;10.75;6.12;;;;;;;4.12;67.29;100997.41;1816020;78;21053;-60
2022/03/02 09:15:34;;;;;;;12.07;6.47;;;;;;;4.18;67.23;100997.59;1809812;78;21128;-60
2022/03/02 09:18:01;;;;;;;11.15;5.55;;;;;;;4.30;67.04;101004.02;1813537;77;22293;-60
2022/03/02 09:20:30;;;;;;;12.07;5.95;;;;;;;4.38;66.90;101000.16;1821779;77;21133;-61
2022/03/02 09:22:57;;;;;;;10.65;6.20;;;;;;;4.47;66.62;100998.90;1825193;78;21014;-61
2022/03/02 09:25:24;;;;;;;13.05;6.65;;;;;;;4.49;66.46;100997.09;1776752;79;21117;-59
2022/03/02 09:27:51;;;;;;;11.40;5.33;;;;;;;4.49;66.46;100987.97;1800323;78;21026;-60
2022/03/02 09:30:18;;;;;;;12.07;6.80;;;;;;;4.47;66.60;100993.69;1809501;78;21070;-60
2022/03/02 09:32:44;;;;;;;10.50;6.35;;;;;;;4.50;66.79;100995.32;1816155;78;21132;-59
2022/03/02 09:35:13;;;;;;;14.58;6.22;;;;;;;4.51;66.78;100990.05;1785881;80;21578;-60
2022/03/02 09:40:31;;;;;;;13.03;6.33;;;;;;;4.50;66.83;100987.50;1778823;78;22331;-60
2022/03/02 09:43:00;;;;;;;14.68;7.22;;;;;;;4.54;66.76;100995.56;1734795;81;21016;-60
2022/03/02 09:45:30;;;;;;;11.30;6.03;;;;;;;4.62;66.79;100981.72;1739864;80;21167;-60
2022/03/02 09:47:59;;;;;;;9.83;5.28;;;;;;;4.68;66.82;100980.62;1745021;81;21509;-60
2022/03/02 09:50:31;;;;;;;11.78;5.90;;;;;;;4.72;66.78;100977.78;1741452;80;21086;-60
2022/03/02 09:53:06;;;;;;;11.03;6.00;;;;;;;4.73;66.56;100974.27;1709270;83;21074;-60
2022/03/02 09:55:33;;;;;;;19.27;6.80;;;;;;;4.74;66.57;100963.38;1710092;81;20923;-60
2022/03/02 09:58:00;;;;;;;11.97;5.83;;;;;;;4.79;66.61;100966.61;1711590;82;21179;-60
2022/03/02 10:00:28;;;;;;;13.58;6.60;;;;;;;4.80;66.45;100956.58;1715275;81;21038;-60
2022/03/02 10:02:58;;;;;;;13.18;6.47;;;;;;;4.81;66.33;100955.20;1707421;83;21097;-60
2022/03/02 10:05:30;;;;;;;13.22;5.67;;;;;;;4.84;66.20;100951.16;1707289;81;21030;-60
2022/03/02 10:08:05;;;;;;;12.00;6.35;;;;;;;4.98;65.82;100943.14;1706094;81;21085;-60
2022/03/02 10:10:36;;;;;;;12.95;6.12;;;;;;;5.03;65.46;100936.77;1722458;81;21113;-60
2022/03/02 10:13:08;;;;;;;13.62;6.80;;;;;;;5.05;65.67;100928.04;1694370;82;21053;-60
2022/03/02 10:15:36;;;;;;;16.90;6.05;;;;;;;5.13;65.88;100923.30;1714099;81;21081;-61
2022/03/02 10:18:04;;;;;;;11.73;6.35;;;;;;;5.24;65.86;100927.98;1713722;83;21969;-61
2022/03/02 10:20:34;;;;;;;12.03;5.10;;;;;;;5.31;65.50;100921.09;1690931;81;21038;-59
2022/03/02 10:23:42;;;;;;;10.23;5.67;;;;;;;5.37;65.21;100922.08;1648010;83;21792;-60
2022/03/02 10:26:23;;;;;;;9.75;5.20;;;;;;;5.45;65.02;100919.56;1712185;81;21077;-60
2022/03/02 10:29:12;;;;;;;12.33;4.92;;;;;;;5.54;63.81;100912.09;1730372;81;21116;-60
2022/03/02 10:32:05;;;;;;;10.32;5.15;;;;;;;5.54;63.48;100903.42;1733798;81;21634;-61
2022/03/02 10:34:46;;;;;;;11.78;5.22;;;;;;;5.53;63.93;100904.33;1715528;81;22093;-60
2022/03/02 10:37:53;;;;;;;10.90;4.80;;;;;;;5.58;64.00;100898.41;1686210;83;21110;-59
2022/03/02 10:40:24;;;;;;;11.75;5.00;;;;;;;5.68;63.74;100892.27;1711664;82;21002;-59
2022/03/02 10:43:01;;;;;;;9.75;4.37;;;;;;;5.70;63.07;100889.98;1710026;83;21011;-60
2022/03/02 10:45:47;;;;;;;10.93;4.70;;;;;;;5.70;63.01;100891.28;1712945;82;21165;-59
2022/03/02 10:48:19;;;;;;;10.18;4.15;;;;;;;5.66;63.39;100886.29;1694387;83;21649;-61
2022/03/02 10:50:48;;;;;;;9.58;4.33;;;;;;;5.66;63.23;100881.06;1691137;83;21839;-60
2022/03/02 10:53:16;;;;;;;6.75;3.42;;;;;;;5.69;63.36;100876.53;1713227;83;21105;-60
2022/03/02 10:55:45;;;;;;;10.85;4.65;;;;;;;5.85;63.30;100878.34;1686410;83;21113;-59
2022/03/02 10:58:14;;;;;;;11.22;4.42;;;;;;;6.00;63.12;100868.44;1712349;82;21098;-60
2022/03/02 11:00:41;;;;;;;7.78;4.10;;;;;;;6.11;62.66;100867.38;1705784;82;21117;-60
2022/03/02 11:03:08;;;;;;;8.73;3.95;;;;;;;6.11;62.37;100862.16;1714421;82;21539;-60
2022/03/02 11:05:36;;;;;;;8.30;4.33;;;;;;;6.09;62.56;100863.19;1704162;82;21055;-61
2022/03/02 11:08:03;;;;;;;10.82;4.72;;;;;;;6.07;62.42;100859.78;1678710;83;21118;-60
2022/03/02 11:10:33;;;;;;;8.03;4.03;;;;;;;6.00;62.26;100863.66;1703742;82;21062;-61
2022/03/02 11:13:03;;;;;;;9.03;4.35;;;;;;;5.92;62.42;100857.05;1696613;83;21525;-60
2022/03/02 11:15:51;;;;;;;11.85;4.15;;;;;;;5.84;62.27;100852.69;1714837;82;22040;-60
2022/03/02 11:18:37;;;;;;;10.72;4.40;;;;;;;5.75;62.40;100846.19;1707731;82;21099;-60
2022/03/02 11:21:10;;;;;;;9.93;4.00;;;;;;;5.61;62.71;100849.97;1700679;83;21082;-60
2022/03/02 11:23:47;;;;;;;9.28;4.60;;;;;;;5.40;63.27;100838.41;1716280;83;21083;-60
2022/03/02 11:26:28;;;;;;;8.05;4.40;;;;;;;5.31;63.53;100833.67;1709859;82;21020;-60
2022/03/02 11:28:56;;;;;;;8.93;4.47;;;;;;;5.25;63.51;100831.37;1708491;82;21845;-59
2022/03/02 11:31:29;;;;;;;9.25;4.67;;;;;;;5.16;63.86;100822.69;1704012;82;21682;-59